Alpena, Arkansas
Current Conditions -  °F | °C
As of 6:53 AM on Thursday 30 Oct 2014 (Local Time) from KHRO Reporting Station
Clear Clear  
Wind Chill:   Ceiling: Unl
Heat Index:   Visibility: 10mi
Dew Point:   Wind: 3mph
Humidity: 93%   Direction: 120°ESE
Pressure: 30.13"   Gusts: NA
Location:  36.29°N, 93.29°W
Report Text: KHRO 301153Z AUTO 12003KT 10SM CLR 04/03 A3013 RMK AO2 SLP203 T00440033 10072 20039 58004
Loading
Personal Weather Stations






























Interactive Weather Map New forecast layout! Learn more

10-Day Weather Forecast

Advertisements
Track Severe Weather on mobile